createdAt,value
2023-12-21T00:02:10.874Z,17.2
2023-12-21T00:07:16.968Z,17.2
2023-12-21T00:12:23.066Z,17.2
2023-12-21T00:17:29.196Z,17.2
2023-12-21T00:22:34.259Z,17.2
2023-12-21T00:27:40.347Z,17.2
2023-12-21T00:32:46.442Z,17.2
2023-12-21T00:37:52.534Z,17.2
2023-12-21T00:42:58.627Z,17.2
2023-12-21T00:48:04.739Z,17.2
2023-12-21T00:53:10.866Z,17.2
2023-12-21T00:58:16.905Z,17.2
2023-12-21T01:03:22.998Z,17.2
2023-12-21T01:08:29.092Z,17.2
2023-12-21T01:13:35.184Z,17.2
2023-12-21T01:18:41.272Z,17.2
2023-12-21T01:23:47.370Z,17.2
2023-12-21T01:28:52.473Z,17.2
2023-12-21T01:33:58.573Z,17.2
2023-12-21T01:39:04.650Z,17.2
2023-12-21T01:44:10.811Z,17.2
2023-12-21T01:49:16.847Z,17.2
2023-12-21T01:54:22.926Z,17.2
2023-12-21T01:59:29.020Z,17.2
2023-12-21T02:04:35.132Z,17.2
2023-12-21T02:09:41.230Z,17.2
2023-12-21T02:14:47.340Z,17.2
2023-12-21T02:19:53.391Z,17.3
2023-12-21T02:24:59.476Z,17.3
2023-12-21T02:30:05.582Z,17.3
2023-12-21T02:35:10.682Z,17.3
2023-12-21T02:40:16.773Z,17.3
2023-12-21T02:45:22.864Z,17.3
2023-12-21T02:50:28.949Z,17.3
2023-12-21T02:55:35.099Z,17.3
2023-12-21T03:00:41.134Z,17.3
2023-12-21T03:05:47.229Z,17.3
2023-12-21T03:10:53.320Z,17.3
2023-12-21T03:15:59.411Z,17.3
2023-12-21T03:21:05.517Z,17.3
2023-12-21T03:26:11.585Z,17.3
2023-12-21T03:31:17.703Z,17.3
2023-12-21T03:36:23.777Z,17.3
2023-12-21T03:41:28.881Z,17.3
2023-12-21T03:46:34.977Z,17.3
2023-12-21T03:51:41.077Z,17.3
2023-12-21T03:56:47.149Z,17.3
2023-12-21T04:01:53.248Z,17.3
2023-12-21T04:06:59.336Z,17.3
2023-12-21T04:12:05.443Z,17.3
2023-12-21T04:17:11.523Z,17.3
2023-12-21T04:22:17.667Z,17.3
2023-12-21T04:27:23.712Z,17.3
2023-12-21T04:32:29.823Z,17.3
2023-12-21T04:37:35.891Z,17.3
2023-12-21T04:42:41.982Z,17.3
2023-12-21T04:47:47.107Z,17.4
2023-12-21T04:52:53.179Z,17.4
2023-12-21T04:57:59.272Z,17.3
2023-12-21T05:03:05.401Z,17.4
2023-12-21T05:08:11.445Z,17.4
2023-12-21T05:13:17.544Z,17.4
2023-12-21T05:18:23.641Z,17.4
2023-12-21T05:23:29.724Z,17.4
2023-12-21T05:28:35.819Z,17.4
2023-12-21T05:33:41.920Z,17.4
2023-12-21T05:38:48.044Z,17.4
2023-12-21T05:43:54.096Z,17.4
2023-12-21T05:49:00.195Z,17.4
2023-12-21T05:54:05.299Z,17.4
2023-12-21T05:59:11.399Z,17.4
2023-12-21T06:04:17.491Z,17.4
2023-12-21T06:09:23.585Z,17.4
2023-12-21T06:14:29.683Z,17.4
2023-12-21T06:19:35.955Z,17.4
2023-12-21T06:24:41.932Z,17.4
2023-12-21T06:29:47.945Z,17.4
2023-12-21T06:34:54.032Z,17.4
2023-12-21T06:40:00.120Z,17.4
2023-12-21T06:45:06.222Z,17.5
2023-12-21T06:50:12.311Z,17.5
2023-12-21T06:55:18.404Z,17.5
2023-12-21T07:00:23.572Z,17.5
2023-12-21T07:05:29.609Z,17.5
2023-12-21T07:10:35.711Z,17.5
2023-12-21T07:15:41.820Z,17.5
2023-12-21T07:20:47.961Z,17.5
2023-12-21T07:25:53.978Z,17.5
2023-12-21T07:30:59.119Z,17.5
2023-12-21T07:36:05.173Z,17.5
2023-12-21T07:41:11.493Z,17.5
2023-12-21T07:46:17.402Z,17.5
2023-12-21T07:51:23.467Z,17.5
2023-12-21T07:56:29.539Z,17.5
2023-12-21T08:01:35.649Z,17.5
2023-12-21T08:06:41.837Z,17.4
2023-12-21T08:11:47.911Z,17.5
2023-12-21T08:16:53.939Z,17.5
2023-12-21T08:22:00.089Z,17.5
2023-12-21T08:27:06.158Z,17.5
2023-12-21T08:32:12.232Z,17.5
2023-12-21T08:37:17.296Z,17.5
2023-12-21T08:42:23.383Z,17.6
2023-12-21T08:47:29.484Z,17.6
2023-12-21T08:52:35.584Z,17.6
2023-12-21T08:57:41.658Z,17.7
2023-12-21T09:02:47.742Z,17.7
2023-12-21T09:07:53.847Z,17.7
2023-12-21T09:12:59.999Z,17.7
2023-12-21T09:18:06.024Z,17.7
2023-12-21T09:23:12.141Z,17.7
2023-12-21T09:28:18.216Z,17.8
2023-12-21T09:33:24.311Z,17.8
2023-12-21T09:38:30.413Z,17.8
2023-12-21T09:43:35.498Z,17.8
2023-12-21T09:48:41.622Z,17.8
2023-12-21T09:53:47.718Z,17.8
2023-12-21T09:58:53.787Z,17.8
2023-12-21T10:03:59.924Z,17.8
2023-12-21T10:09:05.965Z,17.8
2023-12-21T10:14:12.055Z,17.9
2023-12-21T10:19:18.143Z,17.9
2023-12-21T10:24:24.248Z,17.9
2023-12-21T10:29:30.323Z,17.9
2023-12-21T10:34:36.425Z,17.9
2023-12-21T10:39:42.559Z,17.9
2023-12-21T10:44:48.624Z,17.9
2023-12-21T10:49:53.717Z,17.9
2023-12-21T10:54:59.971Z,17.9
2023-12-21T11:00:05.892Z,17.9
2023-12-21T11:05:11.990Z,17.9
2023-12-21T11:10:18.077Z,17.9
2023-12-21T11:15:24.173Z,17.9
2023-12-21T11:20:30.263Z,17.9
2023-12-21T11:25:36.359Z,17.9
2023-12-21T11:30:42.472Z,17.9
2023-12-21T11:35:48.547Z,17.9
2023-12-21T11:40:54.631Z,17.9
2023-12-21T11:46:00.720Z,17.9
2023-12-21T11:51:06.815Z,18
2023-12-21T11:56:11.921Z,18
2023-12-21T12:01:18.011Z,18
2023-12-21T12:06:24.177Z,18
2023-12-21T12:11:30.200Z,18
2023-12-21T12:16:36.297Z,18
2023-12-21T12:21:42.509Z,18
2023-12-21T12:26:48.507Z,18
2023-12-21T12:31:54.570Z,18
2023-12-21T12:37:00.658Z,18
2023-12-21T12:42:06.762Z,17.7
2023-12-21T12:47:12.837Z,17.7
2023-12-21T12:52:18.939Z,17.7
2023-12-21T12:57:25.025Z,17.8
2023-12-21T13:02:30.187Z,17.8
2023-12-21T13:07:36.222Z,17.9
2023-12-21T13:12:42.316Z,17.9
2023-12-21T13:17:48.648Z,17.9
2023-12-21T13:22:54.867Z,18
2023-12-21T13:28:00.828Z,18.1
2023-12-21T13:33:06.923Z,18.2
2023-12-21T13:38:12.857Z,18.2
2023-12-21T13:43:19.001Z,18.3
2023-12-21T13:48:25.274Z,18.3
2023-12-21T13:53:31.381Z,18.3
2023-12-21T13:58:37.281Z,18.3
2023-12-21T14:03:43.249Z,18.3
2023-12-21T14:08:48.607Z,18.3
2023-12-21T14:12:55.399Z,18.3
2023-12-21T14:14:07.638Z,18.3
